Impacts METAR Board INFO
IDs:

KPIT - Pittsburgh Intl, PA, US

Updated at: 0518 UTC 16 Dec 2017
Potential Impact None Slight Moderate High
Time15/17Z 15/18Z 15/19Z 15/20Z 15/21Z 15/22Z 15/23Z 16/00Z 16/01Z 16/02Z 16/03Z 16/04Z 16/05Z
VIS10 10 10 10 10 7 7 8 8 7 10 10 10
CIG120 90 140 38 45 34 32 29 43 26 48 50 55
CoverOVCOVCBKNBKNOVCOVCOVCOVCOVCOVCOVCOVCOVC
FltCatVFRVFRVFRVFRVFRVFRVFRMVFRVFRMVFRVFRVFRVFR
WX-----------SN-SN-SN-SN-SN------
WDir270260230260230250240250250270270270220
WSpd8 8 10 11 11 10 9 10 12 12 12 11 11
WGst-- -- -- 17 18 -- 18 19 22 17 -- -- --
Raw hourly METARs
KPIT 151651Z 27008KT 10SM FEW035 BKN120 OVC180 M04/M11 A2991 RMK AO2 SLP153 T10391111
KPIT 151751Z 26008KT 10SM FEW035 BKN090 OVC130 M03/M12 A2989 RMK AO2 SLP147 T10331117 11033 21083 58018
KPIT 151851Z 23010KT 10SM FEW035 SCT085 BKN140 M02/M12 A2987 RMK AO2 SLP139 T10171117
KPIT 151951Z 26011G17KT 10SM BKN038 BKN080 M02/M11 A2987 RMK AO2 SLP138 T10221111
KPIT 152051Z 23011G18KT 10SM BKN045 OVC080 M02/M10 A2986 RMK AO2 SLP137 T10171100 56009
KPIT 152151Z 25010KT 7SM -SN FEW026 OVC034 M02/M08 A2987 RMK AO2 SNB20 SLP140 P0000 T10221083
KPIT 152251Z 24009G18KT 7SM -SN FEW025 BKN032 OVC060 M02/M08 A2988 RMK AO2 SLP145 P0000 T10221083
KPIT 152351Z 25010G19KT 8SM -SN FEW012 BKN029 OVC060 M02/M07 A2990 RMK AO2 SLP149 P0000 60000 T10221072 11017 21033 53012
KPIT 160051Z 25012G22KT 8SM -SN SCT022 BKN043 OVC060 M02/M07 A2993 RMK AO2 SLP160 P0000 T10221067
KPIT 160151Z 27012G17KT 7SM -SN FEW013 BKN026 OVC048 M02/M06 A2994 RMK AO2 SLP164 P0000 T10221061 $
KPIT 160251Z 27012KT 10SM FEW024 BKN048 OVC060 M02/M08 A2996 RMK AO2 SNE49 SLP171 P0000 60000 T10221078 51021 $
KPIT 160351Z 27011KT 10SM OVC050 M02/M09 A2999 RMK AO2 SLP177 T10221089 $
KPIT 160451Z 22011KT 10SM OVC055 M02/M08 A2998 RMK AO2 SLP176 T10171083 410171100 $